Time;durP1;ratioP1;P1;durP2;ratioP2;P2;SDS_P1;SDS_P2;PMS_P1;PMS_P2;Temp;Humidity;BMP_temperature;BMP_pressure;BME280_temperature;BME280_humidity;BME280_pressure;Samples;Min_cycle;Max_cycle;Signal;HPM_P1;HPM_P2
2022/05/07 00:00:55;;;;;;;58.40;40.92;;;13.50;87.70;;;;;;5080043;28;20042;-79
2022/05/07 00:03:21;;;;;;;46.70;35.13;;;13.50;87.30;;;;;;5080275;28;20046;-80
2022/05/07 00:05:46;;;;;;;62.80;42.95;;;13.50;87.80;;;;;;5113785;28;20044;-80
2022/05/07 00:08:12;;;;;;;56.60;40.15;;;13.50;87.50;;;;;;5114030;28;20031;-80
2022/05/07 00:10:38;;;;;;;57.47;40.90;;;13.50;87.30;;;;;;5096578;28;20078;-80
2022/05/07 00:13:04;;;;;;;62.83;44.10;;;13.50;87.30;;;;;;5096726;28;20122;-77
2022/05/07 00:15:30;;;;;;;62.72;42.58;;;13.50;87.60;;;;;;5113539;28;20118;-78
2022/05/07 00:18:03;;;;;;;56.70;38.78;;;13.50;87.70;;;;;;5096856;28;20036;-81
2022/05/07 00:20:30;;;;;;;57.63;41.40;;;13.50;87.60;;;;;;5097656;28;20099;-82
2022/05/07 00:22:57;;;;;;;61.13;43.72;;;13.50;87.40;;;;;;5113497;28;20036;-81
2022/05/07 00:25:24;;;;;;;52.15;39.78;;;13.50;87.40;;;;;;5096505;28;20046;-80
2022/05/07 00:27:49;;;;;;;51.83;39.42;;;13.50;87.40;;;;;;5113640;28;20055;-83
2022/05/07 00:30:15;;;;;;;56.08;40.20;;;13.50;87.00;;;;;;5079687;28;20036;-81
2022/05/07 00:32:41;;;;;;;61.13;43.35;;;13.60;87.20;;;;;;5096179;28;20474;-80
2022/05/07 00:35:09;;;;;;;53.67;37.42;;;13.60;87.20;;;;;;5113212;28;20044;-80
2022/05/07 00:37:34;;;;;;;53.33;39.75;;;13.60;87.20;;;;;;5096250;28;20135;-79
2022/05/07 00:40:00;;;;;;;55.30;40.58;;;13.60;87.40;;;;;;5096167;28;20499;-82
2022/05/07 00:42:26;;;;;;;48.78;35.72;;;13.60;87.30;;;;;;5113132;28;20108;-80
2022/05/07 00:44:52;;;;;;;56.55;39.67;;;13.60;87.10;;;;;;5096120;28;20051;-81
2022/05/07 00:47:30;;;;;;;44.65;32.28;;;13.60;87.10;;;;;;5112760;28;20047;-80
2022/05/07 00:51:33;;;;;;;42.58;31.90;;;13.60;86.80;;;;;;5112922;28;20518;-82
2022/05/07 00:52:43;;;;;;;53.00;37.60;;;13.60;86.80;;;;;;5112963;28;20043;-79
2022/05/07 00:55:11;;;;;;;50.60;37.35;;;13.60;86.90;;;;;;5112853;28;20047;-80
2022/05/07 00:57:37;;;;;;;51.65;37.30;;;13.60;86.70;;;;;;5112820;28;20032;-81
2022/05/07 01:00:05;;;;;;;49.92;37.80;;;13.60;86.80;;;;;;5113003;28;20123;-80
2022/05/07 01:02:31;;;;;;;54.10;38.88;;;13.60;86.70;;;;;;5095827;28;20542;-79
2022/05/07 01:04:57;;;;;;;54.20;40.05;;;13.60;86.80;;;;;;5095746;28;20123;-79
2022/05/07 01:07:23;;;;;;;53.13;38.97;;;13.60;87.40;;;;;;5079000;28;20043;-81
2022/05/07 01:09:49;;;;;;;53.38;39.78;;;13.60;87.10;;;;;;5095640;28;20142;-82
2022/05/07 01:12:16;;;;;;;54.28;38.90;;;13.50;87.00;;;;;;5095715;28;20055;-81
2022/05/07 01:14:41;;;;;;;56.85;41.42;;;13.50;87.00;;;;;;5095819;28;20043;-78
2022/05/07 01:17:08;;;;;;;50.22;38.97;;;13.60;87.10;;;;;;5112830;28;20038;-78
2022/05/07 01:19:34;;;;;;;51.88;37.45;;;13.50;86.60;;;;;;5095716;28;20043;-78
2022/05/07 01:22:01;;;;;;;39.53;31.15;;;13.50;86.50;;;;;;5112456;28;20484;-78
2022/05/07 01:24:27;;;;;;;48.20;35.88;;;13.50;86.70;;;;;;5095545;28;20046;-79
2022/05/07 01:26:52;;;;;;;45.13;35.40;;;13.50;86.40;;;;;;5095397;28;20039;-80
2022/05/07 01:29:18;;;;;;;51.95;38.67;;;13.50;86.30;;;;;;5112309;28;20044;-81
2022/05/07 01:31:44;;;;;;;55.13;41.90;;;13.50;86.30;;;;;;5112235;28;20043;-82
2022/05/07 01:34:09;;;;;;;53.97;40.83;;;13.40;86.70;;;;;;5112245;28;20043;-81
2022/05/07 01:36:35;;;;;;;50.53;40.38;;;13.50;86.80;;;;;;5112211;28;20039;-79
2022/05/07 01:39:01;;;;;;;46.17;36.58;;;13.40;86.90;;;;;;5095075;28;20237;-82
2022/05/07 01:41:26;;;;;;;51.95;40.67;;;13.40;86.70;;;;;;5112062;28;20055;-78
2022/05/07 01:43:53;;;;;;;52.85;38.50;;;13.40;86.90;;;;;;5095248;28;20100;-79
2022/05/07 01:49:04;;;;;;;53.83;40.95;;;13.30;87.00;;;;;;5097800;28;20087;-79
2022/05/07 01:51:29;;;;;;;49.55;39.45;;;13.30;87.30;;;;;;5111991;28;20043;-78
2022/05/07 01:53:55;;;;;;;51.97;39.30;;;13.30;87.40;;;;;;5112023;28;20452;-79
2022/05/07 01:56:21;;;;;;;43.58;35.20;;;13.20;87.40;;;;;;5111988;28;20123;-82
2022/05/07 01:58:48;;;;;;;53.47;39.50;;;13.20;87.10;;;;;;5114014;28;20122;-81
2022/05/07 02:01:14;;;;;;;47.10;36.80;;;13.20;87.00;;;;;;5116397;28;20043;-81
2022/05/07 02:03:40;;;;;;;50.55;38.63;;;13.20;87.10;;;;;;5116221;28;20039;-79
2022/05/07 02:06:05;;;;;;;47.53;38.45;;;13.20;87.00;;;;;;5116186;28;20089;-79
2022/05/07 02:08:31;;;;;;;38.63;31.90;;;13.20;87.10;;;;;;5116087;28;20044;-82
2022/05/07 02:11:00;;;;;;;47.08;37.83;;;13.20;87.10;;;;;;5098951;28;20080;-79
2022/05/07 02:13:27;;;;;;;51.00;39.78;;;13.10;87.00;;;;;;5116201;28;20403;-80
2022/05/07 02:15:52;;;;;;;52.83;39.10;;;13.10;86.90;;;;;;5116025;28;20082;-80
2022/05/07 02:18:21;;;;;;;36.50;29.33;;;13.10;87.50;;;;;;5115837;28;20071;-84
2022/05/07 02:20:47;;;;;;;46.55;37.28;;;13.00;87.50;;;;;;5098799;28;20036;-81
2022/05/07 02:23:12;;;;;;;52.97;38.28;;;13.00;87.80;;;;;;5099023;28;20042;-79
2022/05/07 02:25:38;;;;;;;46.50;37.03;;;13.00;87.50;;;;;;5098816;28;20039;-82
2022/05/07 02:28:05;;;;;;;50.70;39.65;;;12.90;87.70;;;;;;5098989;28;20043;-80
2022/05/07 02:30:31;;;;;;;51.55;39.42;;;12.90;87.80;;;;;;5115598;28;20051;-80
2022/05/07 02:32:56;;;;;;;47.20;37.22;;;12.90;87.60;;;;;;5115623;28;20035;-79
2022/05/07 02:35:22;;;;;;;48.78;37.63;;;12.80;87.40;;;;;;5115492;28;20043;-80
2022/05/07 02:37:48;;;;;;;46.53;37.88;;;12.80;87.70;;;;;;5098246;28;20251;-80
2022/05/07 02:40:14;;;;;;;47.92;37.33;;;12.80;87.70;;;;;;5115399;28;20047;-80
2022/05/07 02:42:40;;;;;;;47.58;39.13;;;12.70;87.70;;;;;;5098405;28;20511;-80
2022/05/07 02:45:07;;;;;;;39.78;33.38;;;12.80;87.70;;;;;;5115414;28;20039;-82
2022/05/07 02:47:37;;;;;;;47.58;38.67;;;12.70;87.70;;;;;;5098373;28;20036;-81
2022/05/07 02:50:05;;;;;;;48.50;39.75;;;12.80;88.10;;;;;;5098490;28;20039;-81
2022/05/07 02:52:33;;;;;;;46.78;37.22;;;12.70;87.90;;;;;;5115468;28;20036;-82
2022/05/07 02:55:01;;;;;;;47.97;38.00;;;12.70;88.30;;;;;;5098654;28;20131;-79
2022/05/07 02:57:27;;;;;;;43.75;34.88;;;12.70;88.50;;;;;;5115168;28;20036;-79
2022/05/07 02:59:53;;;;;;;46.45;36.90;;;12.60;88.50;;;;;;5081376;28;20062;-79
2022/05/07 03:02:18;;;;;;;49.47;37.53;;;12.60;88.80;;;;;;5115150;28;20031;-82
2022/05/07 03:04:46;;;;;;;50.47;38.35;;;12.60;89.00;;;;;;5115008;28;20039;-79
2022/05/07 03:07:11;;;;;;;50.38;38.53;;;12.60;88.60;;;;;;5098046;28;20055;-79
2022/05/07 03:09:37;;;;;;;48.83;38.55;;;12.60;89.10;;;;;;5064184;28;20040;-82
2022/05/07 03:12:03;;;;;;;45.17;38.33;;;12.60;89.10;;;;;;5064587;28;20035;-82
2022/05/07 03:14:29;;;;;;;47.35;38.90;;;12.50;89.00;;;;;;5098002;28;20046;-80
2022/05/07 03:16:55;;;;;;;49.53;39.25;;;12.50;89.20;;;;;;5097825;28;20040;-82
2022/05/07 03:19:20;;;;;;;52.08;41.28;;;12.50;89.20;;;;;;5114637;28;20036;-80
2022/05/07 03:21:47;;;;;;;51.47;40.03;;;12.60;88.70;;;;;;5097866;28;20038;-83
2022/05/07 03:24:12;;;;;;;48.03;39.97;;;12.50;88.70;;;;;;5097686;28;20080;-83
2022/05/07 03:26:38;;;;;;;48.25;40.15;;;12.50;88.30;;;;;;5097688;28;20043;-79
2022/05/07 03:29:04;;;;;;;51.08;40.70;;;12.50;88.30;;;;;;5114550;28;20057;-80
2022/05/07 03:31:30;;;;;;;47.05;37.97;;;12.50;88.30;;;;;;5097449;28;20122;-84
2022/05/07 03:33:56;;;;;;;47.85;38.58;;;12.50;88.40;;;;;;5114403;28;20040;-83
2022/05/07 03:36:21;;;;;;;48.97;39.22;;;12.60;88.70;;;;;;5080860;28;20049;-80
2022/05/07 03:38:47;;;;;;;42.40;33.00;;;12.60;88.70;;;;;;5114241;28;20057;-79
2022/05/07 03:41:14;;;;;;;47.60;38.17;;;12.60;88.70;;;;;;5080512;28;20043;-81
2022/05/07 03:43:41;;;;;;;45.50;38.35;;;12.70;88.60;;;;;;5097335;28;20508;-80
2022/05/07 03:46:08;;;;;;;38.42;33.05;;;12.70;88.50;;;;;;5114264;28;20035;-80
2022/05/07 03:48:34;;;;;;;44.13;36.65;;;12.70;88.50;;;;;;5114153;28;20051;-84
2022/05/07 03:51:00;;;;;;;43.67;36.40;;;12.70;88.30;;;;;;5114083;28;20036;-83
2022/05/07 03:53:29;;;;;;;32.35;28.38;;;12.70;88.40;;;;;;5113965;28;20105;-81
2022/05/07 03:55:59;;;;;;;43.65;35.53;;;12.70;88.40;;;;;;5097394;28;20027;-84
2022/05/07 03:58:26;;;;;;;49.20;35.55;;;12.70;88.30;;;;;;5096893;28;20055;-79
2022/05/07 04:00:53;;;;;;;46.03;37.28;;;12.80;88.10;;;;;;5113904;28;20399;-81
2022/05/07 04:03:20;;;;;;;45.50;37.47;;;12.70;88.10;;;;;;5096727;28;20434;-80
2022/05/07 04:05:46;;;;;;;45.10;37.13;;;12.70;88.20;;;;;;5113865;28;20050;-81
2022/05/07 04:08:12;;;;;;;47.20;37.78;;;12.80;88.30;;;;;;5113632;28;20480;-82
2022/05/07 04:10:38;;;;;;;46.03;38.58;;;12.80;88.30;;;;;;5114041;28;20040;-80
2022/05/07 04:13:03;;;;;;;47.60;39.58;;;12.80;88.30;;;;;;5113761;28;20036;-80
2022/05/07 04:15:29;;;;;;;43.85;37.90;;;12.80;88.20;;;;;;5113508;28;20050;-79
2022/05/07 04:17:55;;;;;;;47.00;38.08;;;12.80;88.20;;;;;;5079744;28;20065;-83
2022/05/07 04:20:21;;;;;;;52.40;40.50;;;12.80;88.40;;;;;;5096372;28;20071;-80
2022/05/07 04:22:47;;;;;;;46.92;37.65;;;12.80;88.30;;;;;;5113159;28;20077;-81
2022/05/07 04:25:13;;;;;;;48.50;38.35;;;12.80;88.20;;;;;;5113428;28;20044;-79
2022/05/07 04:27:39;;;;;;;49.78;39.30;;;12.80;88.30;;;;;;5113363;28;20039;-79
2022/05/07 04:30:05;;;;;;;46.47;36.78;;;12.80;88.30;;;;;;5079570;28;20221;-79
2022/05/07 04:32:32;;;;;;;51.90;39.13;;;12.80;88.60;;;;;;5096493;28;20059;-80
2022/05/07 04:34:57;;;;;;;48.75;39.80;;;12.80;88.60;;;;;;5113275;28;20035;-79
2022/05/07 04:37:24;;;;;;;42.13;34.17;;;12.70;88.60;;;;;;5113232;28;20582;-82
2022/05/07 04:39:50;;;;;;;48.10;37.83;;;12.60;88.70;;;;;;5096348;28;20031;-81
2022/05/07 04:42:16;;;;;;;46.15;37.25;;;12.60;88.80;;;;;;5096083;28;20544;-79
2022/05/07 04:44:42;;;;;;;47.53;39.13;;;12.60;88.80;;;;;;5095973;28;20039;-81
2022/05/07 04:47:08;;;;;;;48.03;38.75;;;12.60;88.80;;;;;;5112923;28;20090;-80
2022/05/07 04:49:35;;;;;;;50.55;40.05;;;12.60;89.20;;;;;;5079058;28;20090;-79
2022/05/07 04:52:01;;;;;;;50.00;39.17;;;12.50;89.10;;;;;;5112792;28;20559;-80
2022/05/07 04:54:26;;;;;;;45.67;38.85;;;12.60;89.10;;;;;;5095749;28;20131;-80
2022/05/07 04:56:53;;;;;;;49.40;40.83;;;12.50;89.10;;;;;;5095954;28;20403;-78
2022/05/07 04:59:20;;;;;;;46.63;38.38;;;12.50;89.30;;;;;;5112840;28;20042;-80
2022/05/07 05:01:46;;;;;;;53.22;41.83;;;12.50;89.30;;;;;;5079156;28;20035;-77
2022/05/07 05:04:13;;;;;;;48.83;41.58;;;12.50;89.30;;;;;;5096096;28;20492;-81
2022/05/07 05:06:39;;;;;;;49.90;38.58;;;12.50;89.20;;;;;;5112744;28;20046;-79
2022/05/07 05:09:06;;;;;;;52.83;42.03;;;12.50;89.40;;;;;;5095815;28;20040;-82
2022/05/07 05:11:33;;;;;;;59.13;44.55;;;12.60;89.40;;;;;;5095611;28;20040;-80
2022/05/07 05:13:59;;;;;;;55.22;42.30;;;12.50;89.40;;;;;;5112522;28;20050;-81
2022/05/07 05:16:24;;;;;;;50.50;41.63;;;12.60;89.50;;;;;;5095753;28;20118;-80
2022/05/07 05:18:51;;;;;;;50.40;40.78;;;12.60;89.60;;;;;;5095622;28;20122;-79
2022/05/07 05:21:17;;;;;;;47.78;41.00;;;12.60;89.70;;;;;;5095472;28;20472;-82
2022/05/07 05:23:46;;;;;;;49.10;39.03;;;12.70;89.90;;;;;;5112441;28;20075;-78
2022/05/07 05:26:12;;;;;;;44.53;36.55;;;12.70;89.90;;;;;;5112355;28;20079;-79
2022/05/07 05:28:39;;;;;;;50.90;37.65;;;12.70;89.70;;;;;;5095289;28;20054;-80
2022/05/07 05:31:08;;;;;;;47.95;38.97;;;12.60;89.70;;;;;;5078784;28;20427;-80
2022/05/07 05:33:34;;;;;;;47.97;38.13;;;12.70;89.70;;;;;;5078142;28;20446;-80
2022/05/07 05:36:00;;;;;;;41.70;34.55;;;12.70;89.40;;;;;;5112203;28;20040;-81
2022/05/07 05:38:26;;;;;;;40.90;33.22;;;12.80;89.40;;;;;;5095023;28;20148;-79
2022/05/07 05:40:51;;;;;;;43.45;35.72;;;12.80;89.40;;;;;;5112092;28;20044;-81
2022/05/07 05:43:20;;;;;;;46.92;39.28;;;12.90;89.00;;;;;;5112160;28;20047;-80
2022/05/07 05:45:46;;;;;;;49.95;40.13;;;12.90;88.80;;;;;;5112373;28;20035;-81
2022/05/07 05:48:12;;;;;;;46.67;37.90;;;12.90;88.80;;;;;;5095502;28;20048;-80
2022/05/07 05:50:38;;;;;;;49.05;39.88;;;13.00;88.80;;;;;;5095042;28;20185;-80
2022/05/07 05:53:04;;;;;;;52.70;38.38;;;13.00;88.70;;;;;;5112298;28;20046;-79
2022/05/07 05:55:30;;;;;;;50.92;42.78;;;13.00;88.80;;;;;;5111921;28;20510;-78
2022/05/07 05:57:56;;;;;;;40.45;34.35;;;13.10;88.70;;;;;;5078436;28;20036;-81
2022/05/07 06:00:22;;;;;;;53.40;43.08;;;13.10;88.90;;;;;;5111844;28;20373;-83
2022/05/07 06:02:47;;;;;;;51.85;41.15;;;13.20;88.80;;;;;;5095032;28;20032;-82
2022/05/07 06:05:16;;;;;;;49.47;39.92;;;13.30;88.70;;;;;;5095011;28;20044;-78
2022/05/07 06:07:41;;;;;;;56.90;43.75;;;13.30;88.70;;;;;;5095357;28;20065;-80
2022/05/07 06:10:08;;;;;;;47.80;36.97;;;13.50;88.70;;;;;;5078085;28;20039;-79
2022/05/07 06:12:34;;;;;;;58.33;40.58;;;13.50;88.70;;;;;;5111783;28;20035;-79
2022/05/07 06:15:00;;;;;;;67.00;46.90;;;13.60;88.70;;;;;;5111675;28;20035;-82
2022/05/07 06:17:26;;;;;;;57.42;43.25;;;13.70;88.60;;;;;;5095151;28;20047;-78
2022/05/07 06:19:52;;;;;;;67.90;50.83;;;13.70;88.50;;;;;;5111667;28;20399;-81
2022/05/07 06:22:21;;;;;;;63.90;46.75;;;13.80;88.20;;;;;;5111810;28;20047;-82
2022/05/07 06:27:33;;;;;;;53.67;41.17;;;13.90;88.00;;;;;;5083057;28;20050;-79
2022/05/07 06:30:00;;;;;;;56.28;42.90;;;14.00;87.70;;;;;;5094905;28;20408;-78
2022/05/07 06:32:42;;;;;;;60.30;45.40;;;14.00;87.20;;;;;;5094667;28;20122;-76
2022/05/07 06:35:09;;;;;;;50.75;39.17;;;14.20;86.70;;;;;;5111638;28;20043;-82
2022/05/07 06:37:37;;;;;;;55.22;43.67;;;14.30;86.50;;;;;;5080770;28;20491;-78
2022/05/07 06:40:07;;;;;;;49.20;39.38;;;14.40;86.20;;;;;;5098317;28;20050;-80
2022/05/07 06:42:36;;;;;;;49.25;37.47;;;14.50;85.70;;;;;;5081334;28;20038;-81
2022/05/07 06:45:05;;;;;;;55.45;43.38;;;14.50;85.00;;;;;;5117589;27;20038;-79
2022/05/07 06:47:31;;;;;;;60.65;44.72;;;14.60;84.90;;;;;;5118810;27;20088;-78
2022/05/07 06:49:58;;;;;;;63.25;47.80;;;14.70;84.60;;;;;;5101877;27;20039;-79
2022/05/07 06:52:24;;;;;;;56.67;42.03;;;14.90;84.50;;;;;;5118849;27;20384;-79
2022/05/07 06:54:50;;;;;;;49.92;40.78;;;14.90;84.50;;;;;;5101793;27;20046;-82
2022/05/07 06:57:16;;;;;;;50.42;37.75;;;15.00;84.60;;;;;;5118702;27;20534;-82
2022/05/07 06:59:43;;;;;;;55.05;44.55;;;15.00;84.10;;;;;;5101913;27;20091;-79
2022/05/07 07:02:09;;;;;;;53.17;41.10;;;15.00;84.00;;;;;;5118598;27;20035;-79
2022/05/07 07:04:34;;;;;;;62.20;47.08;;;15.00;84.00;;;;;;5101375;27;20047;-81
2022/05/07 07:07:00;;;;;;;58.97;45.53;;;15.00;84.00;;;;;;5101459;27;20039;-79
2022/05/07 07:09:26;;;;;;;62.47;45.35;;;15.10;84.10;;;;;;5101604;27;20074;-81
2022/05/07 07:11:51;;;;;;;64.78;46.90;;;15.10;84.10;;;;;;5118527;27;20039;-79
2022/05/07 07:14:17;;;;;;;64.32;47.08;;;15.10;84.20;;;;;;5084418;27;20084;-81
2022/05/07 07:16:43;;;;;;;56.08;44.90;;;15.20;84.30;;;;;;5118430;27;20035;-81
2022/05/07 07:19:09;;;;;;;50.50;40.70;;;15.20;84.20;;;;;;5118101;27;20588;-82
2022/05/07 07:21:35;;;;;;;52.17;42.60;;;15.20;84.10;;;;;;5084398;27;20039;-78
2022/05/07 07:24:01;;;;;;;55.40;39.58;;;15.20;84.00;;;;;;5117999;27;20046;-79
2022/05/07 07:26:27;;;;;;;46.33;36.90;;;15.30;83.90;;;;;;5084195;27;20054;-79
2022/05/07 07:28:53;;;;;;;61.28;45.15;;;15.30;83.80;;;;;;5084172;27;20380;-79
2022/05/07 07:31:19;;;;;;;49.35;37.88;;;15.30;83.40;;;;;;5118124;27;20046;-78
2022/05/07 07:33:45;;;;;;;63.20;44.42;;;15.30;83.30;;;;;;5101030;27;20043;-83
2022/05/07 07:36:12;;;;;;;61.78;47.40;;;15.30;83.30;;;;;;5117871;27;20035;-82
2022/05/07 07:38:38;;;;;;;62.03;48.45;;;15.30;83.50;;;;;;5100809;27;20058;-81
2022/05/07 07:41:07;;;;;;;67.32;52.50;;;15.40;84.00;;;;;;5117656;27;20038;-80
2022/05/07 07:43:34;;;;;;;59.28;46.80;;;15.40;84.00;;;;;;5084305;27;20031;-80
2022/05/07 07:48:44;;;;;;;61.10;46.15;;;15.40;84.70;;;;;;5117183;27;20042;-78
2022/05/07 07:51:10;;;;;;;61.80;47.75;;;15.40;84.80;;;;;;5117558;27;20096;-82
2022/05/07 07:53:37;;;;;;;59.10;43.75;;;15.40;84.90;;;;;;5117712;27;20043;-81
2022/05/07 07:56:04;;;;;;;62.10;44.35;;;15.40;84.80;;;;;;5099722;27;20037;-81
2022/05/07 07:58:30;;;;;;;59.97;47.10;;;15.50;84.70;;;;;;5117457;27;20049;-82
2022/05/07 08:00:55;;;;;;;57.83;41.03;;;15.50;84.50;;;;;;5100770;27;20039;-81
2022/05/07 08:03:21;;;;;;;59.13;43.95;;;15.50;84.40;;;;;;5100410;27;20038;-82
2022/05/07 08:05:52;;;;;;;61.10;47.13;;;15.60;84.30;;;;;;5100378;27;20050;-79
2022/05/07 08:13:53;;;;;;;53.13;39.30;;;15.70;83.70;;;;;;5117072;27;20046;-79
2022/05/07 08:16:20;;;;;;;58.90;44.83;;;15.70;83.60;;;;;;5117323;27;20072;-79
2022/05/07 08:18:46;;;;;;;55.53;42.53;;;15.80;83.30;;;;;;5100256;27;20171;-81
2022/05/07 08:21:12;;;;;;;63.60;46.17;;;15.90;83.20;;;;;;5116968;27;20070;-81
2022/05/07 08:23:39;;;;;;;67.10;46.40;;;15.90;83.10;;;;;;5099937;27;20035;-83
2022/05/07 08:26:07;;;;;;;59.00;45.45;;;16.00;82.70;;;;;;5083077;27;20035;-80
2022/05/07 08:28:34;;;;;;;70.72;49.13;;;16.00;82.80;;;;;;5117041;27;20067;-79
2022/05/07 08:31:00;;;;;;;62.03;44.03;;;16.10;82.40;;;;;;5099917;27;20511;-83
2022/05/07 08:33:27;;;;;;;58.17;43.60;;;16.10;82.40;;;;;;5116717;27;20039;-78
2022/05/07 08:35:53;;;;;;;49.78;38.33;;;16.10;81.80;;;;;;5117015;27;20057;-81
2022/05/07 08:38:19;;;;;;;39.17;29.60;;;16.10;81.60;;;;;;5099335;27;20051;-78
2022/05/07 08:40:45;;;;;;;41.15;28.95;;;16.10;81.20;;;;;;5116471;27;20074;-79
2022/05/07 08:43:12;;;;;;;41.30;30.38;;;16.20;80.90;;;;;;5099500;27;20472;-82
2022/05/07 08:45:41;;;;;;;43.45;32.15;;;16.20;80.50;;;;;;5116773;27;20043;-81
2022/05/07 08:48:08;;;;;;;42.60;31.30;;;16.20;79.90;;;;;;5082575;27;20043;-79
2022/05/07 08:50:34;;;;;;;45.58;32.33;;;16.30;80.10;;;;;;5116313;27;20042;-80
2022/05/07 08:52:59;;;;;;;48.53;34.08;;;16.40;80.30;;;;;;5099384;27;20129;-83
2022/05/07 08:55:25;;;;;;;44.92;33.75;;;16.40;79.80;;;;;;5116225;27;20043;-82
2022/05/07 08:57:52;;;;;;;44.13;33.38;;;16.40;79.40;;;;;;5116216;27;20122;-82
2022/05/07 09:00:20;;;;;;;41.20;30.27;;;16.40;79.00;;;;;;5116095;27;20066;-78
2022/05/07 09:02:48;;;;;;;38.83;29.55;;;16.40;79.20;;;;;;5116104;27;20490;-80
2022/05/07 09:05:19;;;;;;;42.65;31.35;;;16.40;78.80;;;;;;5116457;27;20064;-82
2022/05/07 09:07:57;;;;;;;45.05;32.58;;;16.50;78.60;;;;;;5099251;27;20039;-79
2022/05/07 09:10:31;;;;;;;44.83;33.13;;;16.50;78.50;;;;;;5116124;27;20050;-81
2022/05/07 09:13:09;;;;;;;37.42;28.52;;;16.60;78.20;;;;;;5099024;27;20081;-78
2022/05/07 09:15:36;;;;;;;41.85;30.40;;;16.60;77.80;;;;;;5098919;27;20062;-78
2022/05/07 09:18:15;;;;;;;45.50;33.00;;;16.60;77.50;;;;;;5099282;27;20034;-82
2022/05/07 09:20:41;;;;;;;42.40;32.08;;;16.60;77.60;;;;;;5116042;27;20035;-81
2022/05/07 09:23:10;;;;;;;47.47;34.95;;;16.70;77.70;;;;;;5115908;27;20035;-80
2022/05/07 09:25:45;;;;;;;43.65;32.83;;;16.80;77.90;;;;;;5115846;27;20042;-78
2022/05/07 09:28:13;;;;;;;46.72;33.20;;;17.00;78.20;;;;;;5099580;27;20078;-82
2022/05/07 09:30:42;;;;;;;47.15;33.60;;;16.90;78.00;;;;;;5098626;27;20066;-82
2022/05/07 09:33:08;;;;;;;44.30;31.50;;;16.90;77.60;;;;;;5116021;27;20388;-80
2022/05/07 09:35:49;;;;;;;44.85;33.42;;;16.90;77.00;;;;;;5081945;27;20094;-83
2022/05/07 09:38:15;;;;;;;44.15;31.80;;;16.80;77.00;;;;;;5115636;27;20495;-79
2022/05/07 09:40:43;;;;;;;39.53;29.15;;;16.70;77.20;;;;;;5115582;27;20581;-79
2022/05/07 09:43:12;;;;;;;36.03;25.65;;;16.60;77.40;;;;;;5115605;28;20031;-78
2022/05/07 09:45:40;;;;;;;36.63;27.35;;;16.50;77.70;;;;;;5115594;27;20074;-79
2022/05/07 09:48:07;;;;;;;42.67;26.08;;;16.50;77.70;;;;;;5115872;28;20043;-81
2022/05/07 09:58:37;;;;;;;47.20;33.55;;;16.50;78.40;;;;;;5115739;28;20047;-78
2022/05/07 10:01:47;;;;;;;49.88;33.58;;;16.40;78.70;;;;;;5098713;28;20414;-79
2022/05/07 10:04:26;;;;;;;53.63;37.20;;;16.50;78.80;;;;;;5115472;28;20047;-78
2022/05/07 10:07:23;;;;;;;52.78;38.17;;;16.60;78.70;;;;;;5115659;28;20042;-78
2022/05/07 10:10:12;;;;;;;51.58;37.42;;;16.70;78.50;;;;;;5098359;28;20131;-79
2022/05/07 10:12:42;;;;;;;46.65;33.45;;;17.00;78.30;;;;;;5115340;28;20482;-80
2022/05/07 10:15:09;;;;;;;46.72;34.10;;;17.10;77.00;;;;;;5115177;28;20487;-82
2022/05/07 10:17:35;;;;;;;44.35;32.60;;;17.20;76.80;;;;;;5115617;28;20380;-83
2022/05/07 10:20:06;;;;;;;46.83;33.42;;;17.20;76.40;;;;;;5117658;27;20043;-80
2022/05/07 10:22:32;;;;;;;46.33;31.65;;;17.20;76.20;;;;;;5119615;27;20077;-81
2022/05/07 10:25:12;;;;;;;37.67;26.90;;;17.20;76.20;;;;;;5102330;27;20081;-82
2022/05/07 10:27:42;;;;;;;36.92;25.85;;;17.30;75.50;;;;;;5119320;27;20047;-80
2022/05/07 10:30:09;;;;;;;30.05;21.27;;;17.40;75.40;;;;;;5119592;27;20039;-82
2022/05/07 10:32:56;;;;;;;21.83;15.65;;;17.40;75.40;;;;;;5102160;27;20091;-81
2022/05/07 10:35:43;;;;;;;16.02;11.98;;;17.40;74.70;;;;;;5118976;27;20042;-81
2022/05/07 10:38:13;;;;;;;18.00;13.63;;;17.30;73.10;;;;;;5118900;27;20051;-79
2022/05/07 10:40:52;;;;;;;14.38;9.70;;;17.30;72.80;;;;;;5119225;27;20412;-79
2022/05/07 10:43:28;;;;;;;15.30;9.73;;;17.30;72.50;;;;;;5102251;27;20051;-79
2022/05/07 10:46:05;;;;;;;15.68;11.13;;;17.40;72.70;;;;;;5118865;27;20483;-78
2022/05/07 10:48:57;;;;;;;14.63;10.57;;;17.40;72.60;;;;;;5119145;27;20080;-80
2022/05/07 10:51:29;;;;;;;14.88;10.95;;;17.50;72.30;;;;;;5114754;27;20089;-80
2022/05/07 10:54:03;;;;;;;16.83;11.20;;;17.40;72.90;;;;;;5101844;27;20042;-81
2022/05/07 10:56:29;;;;;;;;;;;17.50;73.50;;;;;;5119173;27;20122;-81
2022/05/07 10:58:57;;;;;;;18.88;13.27;;;17.50;73.30;;;;;;5101779;27;20428;-82
2022/05/07 11:01:25;;;;;;;23.45;16.25;;;17.40;73.70;;;;;;5118850;27;20087;-79
2022/05/07 11:04:13;;;;;;;19.23;14.75;;;17.40;74.10;;;;;;5118503;27;20086;-80
2022/05/07 11:06:51;;;;;;;17.42;13.52;;;17.30;73.80;;;;;;5118477;27;20071;-82
2022/05/07 11:09:24;;;;;;;22.83;15.32;;;17.30;74.30;;;;;;5101432;27;20031;-80
2022/05/07 11:11:55;;;;;;;21.05;16.40;;;17.40;74.50;;;;;;5101360;27;20035;-80
2022/05/07 11:14:23;;;;;;;23.05;17.75;;;17.50;74.20;;;;;;5118446;27;20035;-78
2022/05/07 11:16:50;;;;;;;21.15;15.55;;;17.40;74.20;;;;;;5118309;27;20035;-81
2022/05/07 11:19:27;;;;;;;23.02;16.80;;;17.40;74.10;;;;;;5084334;27;20499;-80
2022/05/07 11:21:54;;;;;;;18.42;15.48;;;17.40;74.30;;;;;;5118227;27;20516;-79
2022/05/07 11:24:21;;;;;;;19.25;14.27;;;17.40;74.30;;;;;;5101676;27;20437;-78
2022/05/07 11:26:54;;;;;;;23.02;15.52;;;17.50;74.00;;;;;;5101420;27;20386;-82
2022/05/07 11:29:20;;;;;;;21.98;13.73;;;17.50;73.80;;;;;;5118020;27;20096;-79
2022/05/07 11:31:56;;;;;;;20.70;14.18;;;17.70;72.90;;;;;;5101298;27;20465;-80
2022/05/07 11:34:32;;;;;;;19.90;12.57;;;17.90;73.00;;;;;;5100884;27;20107;-83
2022/05/07 11:37:21;;;;;;;18.58;13.23;;;18.00;72.30;;;;;;5117927;27;20551;-80
2022/05/07 11:39:58;;;;;;;15.55;11.57;;;18.20;72.60;;;;;;5098568;28;20407;-80
2022/05/07 11:42:36;;;;;;;16.58;12.15;;;18.40;72.40;;;;;;5097562;28;20039;-81
2022/05/07 11:45:27;;;;;;;17.65;11.45;;;18.80;70.40;;;;;;5114387;28;20054;-79
2022/05/07 11:48:06;;;;;;;15.55;12.13;;;19.00;69.80;;;;;;5097602;28;20062;-80
2022/05/07 11:50:34;;;;;;;15.23;11.82;;;19.20;68.20;;;;;;5114491;28;20036;-80
2022/05/07 11:53:17;;;;;;;14.85;11.60;;;19.30;68.40;;;;;;5114539;28;20395;-78
2022/05/07 11:55:44;;;;;;;17.00;12.50;;;19.20;68.40;;;;;;5114171;28;20484;-80
2022/05/07 11:58:23;;;;;;;17.67;12.35;;;19.10;68.70;;;;;;5080236;28;20036;-82
2022/05/07 12:00:50;;;;;;;17.13;13.77;;;19.00;68.10;;;;;;5097290;28;20369;-79
2022/05/07 12:03:18;;;;;;;19.88;14.90;;;18.80;68.90;;;;;;5114003;28;20111;-83
2022/05/07 12:05:50;;;;;;;16.73;13.10;;;18.60;69.70;;;;;;5113952;28;20124;-80
2022/05/07 12:08:16;;;;;;;15.88;11.80;;;18.50;69.30;;;;;;5096937;28;20040;-80
2022/05/07 12:10:43;;;;;;;16.85;12.00;;;18.70;69.10;;;;;;5113737;28;20044;-80
2022/05/07 12:13:10;;;;;;;15.25;11.45;;;18.90;68.70;;;;;;5113731;28;20040;-82
2022/05/07 12:18:24;;;;;;;16.27;11.45;;;19.30;68.50;;;;;;5113670;28;20069;-80
2022/05/07 12:20:51;;;;;;;14.27;11.73;;;19.70;68.30;;;;;;5096920;28;20422;-81
2022/05/07 12:31:29;;;;;;;;;;;19.70;65.80;;;;;;5113755;28;20051;-79
2022/05/07 12:33:55;;;;;;;14.18;10.25;;;19.50;65.90;;;;;;5113339;28;19916;-78
2022/05/07 12:36:21;;;;;;;15.57;12.00;;;19.60;66.10;;;;;;5096631;28;20036;-80
2022/05/07 12:38:46;;;;;;;15.80;11.50;;;19.50;65.90;;;;;;5096215;28;20059;-79
2022/05/07 12:41:12;;;;;;;14.57;11.60;;;19.40;66.40;;;;;;5096567;28;20035;-81
2022/05/07 12:43:39;;;;;;;14.13;11.45;;;19.30;66.70;;;;;;5096018;28;20039;-80
2022/05/07 12:46:05;;;;;;;16.63;12.27;;;19.10;66.50;;;;;;5096279;28;20081;-80
2022/05/07 12:48:32;;;;;;;15.73;12.50;;;19.00;67.30;;;;;;5096492;28;20039;-81
2022/05/07 12:50:58;;;;;;;13.45;9.93;;;19.20;67.60;;;;;;5096093;28;20043;-81
2022/05/07 12:53:24;;;;;;;11.65;9.88;;;19.40;67.20;;;;;;5113337;28;20380;-79
2022/05/07 12:55:50;;;;;;;12.43;9.55;;;19.40;66.90;;;;;;5095869;28;20044;-79
2022/05/07 12:58:16;;;;;;;11.45;9.80;;;19.40;66.40;;;;;;5096177;28;20042;-83
2022/05/07 13:00:42;;;;;;;15.77;10.38;;;19.70;65.80;;;;;;5095761;28;20494;-80
2022/05/07 13:03:09;;;;;;;10.77;9.23;;;20.10;65.10;;;;;;5096269;28;20070;-79
2022/05/07 13:05:38;;;;;;;11.73;9.02;;;20.60;65.00;;;;;;5096220;28;20046;-81